createdAt,value
2017-12-28T00:00:20.167Z,99259.55
2017-12-28T00:02:47.622Z,99267.50
2017-12-28T00:05:15.479Z,99260.62
2017-12-28T00:07:42.918Z,99256.54
2017-12-28T00:10:10.371Z,99262.58
2017-12-28T00:12:37.841Z,99267.22
2017-12-28T00:15:05.293Z,99259.42
2017-12-28T00:17:32.776Z,99255.66
2017-12-28T00:20:00.227Z,99259.75
2017-12-28T00:22:28.019Z,99267.70
2017-12-28T00:24:55.462Z,99268.84
2017-12-28T00:27:22.910Z,99277.02
2017-12-28T00:29:50.374Z,99282.25
2017-12-28T00:32:17.818Z,99276.58
2017-12-28T00:34:45.287Z,99279.09
2017-12-28T00:37:12.911Z,99284.91
2017-12-28T00:39:40.741Z,99290.90
2017-12-28T00:42:08.204Z,99298.30
2017-12-28T00:44:35.660Z,99302.17
2017-12-28T00:47:02.958Z,99299.23
2017-12-28T00:49:30.223Z,99301.14
2017-12-28T00:51:57.702Z,99307.73
2017-12-28T00:54:25.171Z,99305.38
2017-12-28T00:56:52.652Z,99306.74
2017-12-28T00:59:20.095Z,99312.73
2017-12-28T01:01:47.571Z,99313.66
2017-12-28T01:04:15.037Z,99309.58
2017-12-28T01:06:42.516Z,99307.99
2017-12-28T01:09:09.959Z,99315.39
2017-12-28T01:11:37.419Z,99318.12
2017-12-28T01:14:04.890Z,99319.01
2017-12-28T01:16:32.339Z,99321.73
2017-12-28T01:18:59.904Z,99325.81
2017-12-28T01:21:27.358Z,99324.01
2017-12-28T01:23:54.807Z,99328.42
2017-12-28T01:26:22.281Z,99333.32
2017-12-28T01:28:49.854Z,99335.23
2017-12-28T01:31:17.672Z,99333.10
2017-12-28T01:33:45.152Z,99334.79
2017-12-28T01:36:12.590Z,99341.97
2017-12-28T01:38:40.070Z,99341.97
2017-12-28T01:41:07.527Z,99350.73
2017-12-28T01:43:35.262Z,99346.65
2017-12-28T01:46:02.723Z,99341.90
2017-12-28T01:48:30.166Z,99335.85
2017-12-28T01:50:57.647Z,99337.21
2017-12-28T01:53:25.091Z,99344.39
2017-12-28T01:55:52.773Z,99347.12
2017-12-28T01:58:20.325Z,99339.28
2017-12-28T02:00:47.732Z,99347.82
2017-12-28T02:03:15.206Z,99353.27
2017-12-28T02:05:42.763Z,99349.73
2017-12-28T02:08:10.246Z,99350.86
2017-12-28T02:10:37.695Z,99350.09
2017-12-28T02:13:05.198Z,99355.54
2017-12-28T02:15:32.845Z,99360.17
2017-12-28T02:18:00.342Z,99361.09
2017-12-28T02:20:27.795Z,99367.89
2017-12-28T02:22:55.244Z,99364.51
2017-12-28T02:25:22.707Z,99370.98
2017-12-28T02:27:50.162Z,99369.63
2017-12-28T02:30:17.631Z,99378.35
2017-12-28T02:32:45.279Z,99376.77
2017-12-28T02:35:12.862Z,99378.50
2017-12-28T02:37:40.319Z,99384.70
2017-12-28T02:40:07.766Z,99389.92
2017-12-28T02:42:35.252Z,99391.07
2017-12-28T02:45:02.709Z,99398.91
2017-12-28T02:47:30.178Z,99396.20
2017-12-28T02:49:57.627Z,99404.69
2017-12-28T02:52:25.106Z,99405.82
2017-12-28T02:54:52.554Z,99402.11
2017-12-28T02:57:20.030Z,99407.33
2017-12-28T02:59:47.474Z,99413.32
2017-12-28T03:02:14.963Z,99412.55
2017-12-28T03:04:42.434Z,99412.55
2017-12-28T03:07:09.891Z,99413.69
2017-12-28T03:09:37.378Z,99417.59
2017-12-28T03:12:05.198Z,99428.07
2017-12-28T03:14:32.648Z,99429.61
2017-12-28T03:17:00.095Z,99439.69
2017-12-28T03:19:27.567Z,99444.59
2017-12-28T03:21:55.017Z,99452.85
2017-12-28T03:24:22.490Z,99457.16
2017-12-28T03:26:49.939Z,99460.24
2017-12-28T03:29:17.408Z,99469.55
2017-12-28T03:31:44.846Z,99470.09
2017-12-28T03:34:12.316Z,99477.72
2017-12-28T03:36:39.586Z,99474.55
2017-12-28T03:39:07.732Z,99485.66
2017-12-28T03:41:35.194Z,99492.79
2017-12-28T03:44:02.658Z,99495.33
2017-12-28T03:46:30.111Z,99495.88
2017-12-28T03:48:57.573Z,99497.01
2017-12-28T03:51:25.028Z,99501.68
2017-12-28T03:56:37.063Z,99522.33
2017-12-28T03:59:04.510Z,99522.09
2017-12-28T04:01:31.998Z,99530.27
2017-12-28T04:03:59.639Z,99538.98
2017-12-28T04:06:27.238Z,99543.43
2017-12-28T04:08:54.682Z,99548.65
2017-12-28T04:11:22.128Z,99553.27
2017-12-28T04:13:49.610Z,99564.75
2017-12-28T04:16:17.067Z,99574.37
2017-12-28T04:18:44.543Z,99568.61
2017-12-28T04:21:12.201Z,99574.05
2017-12-28T04:23:39.855Z,99580.63
2017-12-28T04:26:07.311Z,99579.04
2017-12-28T04:28:34.746Z,99580.18
2017-12-28T04:31:02.224Z,99588.34
2017-12-28T04:33:29.678Z,99587.53
2017-12-28T04:35:57.326Z,99593.57
2017-12-28T04:38:24.779Z,99599.01
2017-12-28T04:40:52.254Z,99598.41
2017-12-28T04:43:19.743Z,99604.99
2017-12-28T04:45:47.229Z,99607.49
2017-12-28T04:48:14.869Z,99611.34
2017-12-28T04:50:42.497Z,99621.46
2017-12-28T04:53:09.782Z,99632.89
2017-12-28T04:55:37.262Z,99636.20
2017-12-28T04:58:04.727Z,99641.64
2017-12-28T05:00:32.374Z,99649.23
2017-12-28T05:03:00.035Z,99651.41
2017-12-28T05:05:27.481Z,99657.40
2017-12-28T05:07:54.931Z,99659.43
2017-12-28T05:10:22.404Z,99662.98
2017-12-28T05:12:49.870Z,99665.92
2017-12-28T05:15:17.343Z,99678.27
2017-12-28T05:17:44.824Z,99682.81
2017-12-28T05:20:12.271Z,99689.76
2017-12-28T05:22:39.720Z,99693.94
2017-12-28T05:25:07.186Z,99701.98
2017-12-28T05:27:34.667Z,99712.62
2017-12-28T05:30:02.110Z,99709.22
2017-12-28T05:32:29.754Z,99716.70
2017-12-28T05:34:57.233Z,99720.34
2017-12-28T05:37:24.675Z,99728.88
2017-12-28T05:39:52.150Z,99737.97
2017-12-28T05:42:19.605Z,99740.55
2017-12-28T05:44:47.063Z,99745.55
2017-12-28T05:47:14.539Z,99743.52
2017-12-28T05:49:41.986Z,99752.41
2017-12-28T05:52:09.442Z,99756.36
2017-12-28T05:54:36.923Z,99758.64
2017-12-28T05:57:04.370Z,99756.59
2017-12-28T05:59:31.846Z,99763.31
2017-12-28T06:01:59.296Z,99769.22
2017-12-28T06:04:26.770Z,99779.44
2017-12-28T06:06:54.246Z,99780.44
2017-12-28T06:09:21.711Z,99783.85
2017-12-28T06:11:49.159Z,99784.30
2017-12-28T06:14:16.635Z,99797.34
2017-12-28T06:16:44.119Z,99794.30
2017-12-28T06:19:11.567Z,99803.48
2017-12-28T06:21:38.855Z,99808.02
2017-12-28T06:24:06.127Z,99810.06
2017-12-28T06:26:33.414Z,99817.70
2017-12-28T06:29:01.063Z,99820.06
2017-12-28T06:31:28.535Z,99819.52
2017-12-28T06:33:55.974Z,99828.70
2017-12-28T06:36:23.426Z,99825.42
2017-12-28T06:38:50.903Z,99834.60
2017-12-28T06:41:18.343Z,99843.84
2017-12-28T06:43:45.823Z,99846.19
2017-12-28T06:46:13.274Z,99846.42
2017-12-28T06:48:40.743Z,99852.34
2017-12-28T06:51:08.227Z,99860.19
2017-12-28T06:53:35.667Z,99865.28
2017-12-28T06:56:03.598Z,99870.19
2017-12-28T06:58:31.248Z,99869.60
2017-12-28T07:00:58.694Z,99881.55
2017-12-28T07:03:26.164Z,99878.23
2017-12-28T07:05:53.810Z,99885.05
2017-12-28T07:08:21.506Z,99899.51
2017-12-28T07:10:48.950Z,99900.51
2017-12-28T07:13:16.400Z,99904.05
2017-12-28T07:15:43.868Z,99916.78
2017-12-28T07:18:11.315Z,99924.59
2017-12-28T07:20:38.789Z,99926.73
2017-12-28T07:23:06.243Z,99929.92
2017-12-28T07:25:33.734Z,99939.16
2017-12-28T07:28:01.359Z,99936.88
2017-12-28T07:30:28.658Z,99940.61
2017-12-28T07:32:56.115Z,99943.57
2017-12-28T07:35:23.551Z,99941.88
2017-12-28T07:37:51.174Z,99954.39
2017-12-28T07:40:18.618Z,99953.02
2017-12-28T07:42:46.070Z,99961.44
2017-12-28T07:45:13.564Z,99967.12
2017-12-28T07:47:41.016Z,99973.58
2017-12-28T07:50:08.495Z,99975.52
2017-12-28T07:52:35.918Z,99981.76
2017-12-28T07:55:03.379Z,99989.04
2017-12-28T07:57:30.855Z,99995.30
2017-12-28T07:59:58.101Z,99994.50
2017-12-28T08:02:25.575Z,99997.22
2017-12-28T08:04:53.031Z,100004.86
2017-12-28T08:07:20.506Z,100011.68
2017-12-28T08:09:47.987Z,100016.54
2017-12-28T08:12:15.472Z,100019.85
2017-12-28T08:14:42.931Z,100023.72
2017-12-28T08:17:10.378Z,100028.27
2017-12-28T08:19:38.142Z,100035.41
2017-12-28T08:22:05.602Z,100042.46
2017-12-28T08:24:33.058Z,100038.37
2017-12-28T08:27:00.544Z,100045.18
2017-12-28T08:29:27.799Z,100046.55
2017-12-28T08:31:55.255Z,100049.51
2017-12-28T08:34:22.895Z,100065.88
2017-12-28T08:36:50.407Z,100069.20
2017-12-28T08:39:17.869Z,100074.87
2017-12-28T08:41:45.547Z,100074.87
2017-12-28T08:44:13.039Z,100079.74
2017-12-28T08:46:40.525Z,100091.47
2017-12-28T08:49:08.447Z,100095.80
2017-12-28T08:51:36.181Z,100102.03
2017-12-28T08:54:03.628Z,100106.35
2017-12-28T08:56:31.082Z,100111.48
2017-12-28T08:58:58.561Z,100112.86
2017-12-28T09:01:26.207Z,100118.55
2017-12-28T09:03:53.682Z,100125.01
2017-12-28T09:06:21.141Z,100132.73
2017-12-28T09:08:48.622Z,100134.78
2017-12-28T09:11:16.077Z,100142.97
2017-12-28T09:13:43.567Z,100147.29
2017-12-28T09:16:11.015Z,100157.90
2017-12-28T09:18:38.467Z,100158.13
2017-12-28T09:21:05.955Z,100165.95
2017-12-28T09:23:33.578Z,100167.55
2017-12-28T09:26:01.028Z,100167.20
2017-12-28T09:28:28.491Z,100173.15
2017-12-28T09:30:55.967Z,100180.20
2017-12-28T09:33:23.422Z,100190.56
2017-12-28T09:35:50.714Z,100195.90
2017-12-28T09:38:18.166Z,100202.09
2017-12-28T09:40:45.611Z,100209.49
2017-12-28T09:43:13.095Z,100211.21
2017-12-28T09:45:40.546Z,100214.27
2017-12-28T09:48:07.991Z,100209.81
2017-12-28T09:50:35.466Z,100216.45
2017-12-28T09:53:02.960Z,100217.34
2017-12-28T09:55:30.423Z,100215.05
2017-12-28T09:57:57.918Z,100220.71
2017-12-28T10:00:25.367Z,100213.45
2017-12-28T10:02:52.863Z,100223.60
2017-12-28T10:05:20.465Z,100221.43
2017-12-28T10:07:48.122Z,100222.14
2017-12-28T10:10:15.649Z,100226.13
2017-12-28T10:12:43.078Z,100223.79
2017-12-28T10:15:10.602Z,100228.08
2017-12-28T10:17:38.149Z,100237.62
2017-12-28T10:20:05.588Z,100236.95
2017-12-28T10:22:33.031Z,100242.37
2017-12-28T10:25:00.711Z,100240.22
2017-12-28T10:27:28.163Z,100241.38
2017-12-28T10:29:55.644Z,100247.47
2017-12-28T10:32:23.099Z,100245.44
2017-12-28T10:34:50.568Z,100244.50
2017-12-28T10:37:18.238Z,100237.82
2017-12-28T10:39:45.719Z,100242.41
2017-12-28T10:42:13.185Z,100238.20
2017-12-28T10:44:40.639Z,100241.74
2017-12-28T10:47:08.119Z,100251.53
2017-12-28T10:49:35.576Z,100255.19
2017-12-28T10:52:03.060Z,100255.66
2017-12-28T10:54:30.531Z,100259.63
2017-12-28T10:56:58.178Z,100256.89
2017-12-28T10:59:25.642Z,100269.41
2017-12-28T11:01:53.106Z,100267.73
2017-12-28T11:04:20.563Z,100268.20
2017-12-28T11:06:48.037Z,100269.21
2017-12-28T11:09:15.491Z,100265.93
2017-12-28T11:11:43.010Z,100274.82
2017-12-28T11:14:10.288Z,100283.23
2017-12-28T11:16:37.738Z,100282.89
2017-12-28T11:19:05.392Z,100288.81
2017-12-28T11:21:32.849Z,100288.45
2017-12-28T11:24:00.293Z,100296.34
2017-12-28T11:26:27.771Z,100294.30
2017-12-28T11:28:55.250Z,100293.47
2017-12-28T11:31:22.743Z,100293.94
2017-12-28T11:33:50.201Z,100297.72
2017-12-28T11:36:17.681Z,100299.86
2017-12-28T11:38:45.346Z,100296.00
2017-12-28T11:41:12.829Z,100296.47
2017-12-28T11:43:40.313Z,100298.88
2017-12-28T11:46:07.767Z,100298.06
2017-12-28T11:48:35.051Z,100305.94
2017-12-28T11:51:02.344Z,100311.48
2017-12-28T11:53:29.602Z,100304.89
2017-12-28T11:56:02.446Z,100306.84
2017-12-28T11:58:30.538Z,100315.57
2017-12-28T12:00:57.863Z,100317.53
2017-12-28T12:03:30.626Z,100325.37
2017-12-28T12:05:58.541Z,100329.23
2017-12-28T12:08:35.731Z,100335.52
2017-12-28T12:11:03.184Z,100334.16
2017-12-28T12:13:30.668Z,100340.07
2017-12-28T12:15:58.123Z,100340.38
2017-12-28T12:18:25.759Z,100344.48
2017-12-28T12:20:53.503Z,100348.58
2017-12-28T12:23:20.963Z,100343.35
2017-12-28T12:25:48.420Z,100349.40
2017-12-28T12:28:15.894Z,100355.99
2017-12-28T12:30:43.746Z,100357.36
2017-12-28T12:33:11.215Z,100357.36
2017-12-28T12:35:38.646Z,100358.37
2017-12-28T12:38:06.118Z,100359.18
2017-12-28T12:40:33.587Z,100354.27
2017-12-28T12:43:01.071Z,100355.33
2017-12-28T12:45:28.548Z,100358.84
2017-12-28T12:47:56.005Z,100367.23
2017-12-28T12:50:23.489Z,100368.59
2017-12-28T12:52:50.943Z,100378.38
2017-12-28T12:55:18.398Z,100386.58
2017-12-28T12:57:45.887Z,100382.48
2017-12-28T13:00:14.491Z,100382.28
2017-12-28T13:02:42.183Z,100383.80
2017-12-28T13:05:09.662Z,100380.71
2017-12-28T13:07:37.143Z,100381.18
2017-12-28T13:10:04.598Z,100381.95
2017-12-28T13:12:32.047Z,100393.47
2017-12-28T13:15:00.548Z,100394.17
2017-12-28T13:17:28.003Z,100394.71
2017-12-28T13:19:55.470Z,100400.17
2017-12-28T13:22:22.944Z,100403.14
2017-12-28T13:24:50.595Z,100408.06
2017-12-28T13:27:18.076Z,100409.97
2017-12-28T13:29:45.543Z,100404.86
2017-12-28T13:32:12.999Z,100413.29
2017-12-28T13:34:40.738Z,100415.20
2017-12-28T13:37:08.187Z,100421.48
2017-12-28T13:39:35.882Z,100421.02
2017-12-28T13:42:03.367Z,100420.55
2017-12-28T13:44:30.815Z,100422.27
2017-12-28T13:46:58.288Z,100423.94
2017-12-28T13:49:25.756Z,100426.37
2017-12-28T14:05:03.743Z,100451.05
2017-12-28T14:07:30.517Z,100456.56
2017-12-28T14:30:34.162Z,100511.84
2017-12-28T14:35:29.227Z,100523.70
2017-12-28T14:40:48.112Z,99244.92
2017-12-28T14:43:15.100Z,99268.03
2017-12-28T14:46:10.755Z,99266.21
2017-12-28T14:48:37.907Z,99271.41
2017-12-28T14:51:05.152Z,99280.42
2017-12-28T14:53:32.103Z,99287.56
2017-12-28T14:55:59.044Z,99290.13
2017-12-28T14:58:26.423Z,99292.41
2017-12-28T15:00:53.455Z,99289.86
2017-12-28T15:03:20.482Z,99293.50
2017-12-28T15:05:47.584Z,99293.64
2017-12-28T15:08:14.520Z,99301.20
2017-12-28T15:10:41.671Z,99307.41
2017-12-28T15:13:08.636Z,99307.92
2017-12-28T15:15:35.582Z,99310.07
2017-12-28T15:18:02.766Z,99317.09
2017-12-28T15:20:29.724Z,99326.13
2017-12-28T15:22:56.696Z,99333.29
2017-12-28T15:25:23.944Z,99334.77
2017-12-28T15:27:50.928Z,99337.06
2017-12-28T15:30:17.876Z,99347.45
2017-12-28T15:32:44.826Z,99356.36
2017-12-28T15:35:11.987Z,99360.28
2017-12-28T15:37:38.931Z,99365.68
2017-12-28T15:40:05.895Z,99379.03
2017-12-28T15:42:32.861Z,99383.33
2017-12-28T15:44:59.932Z,99384.42
2017-12-28T15:47:26.927Z,99387.65
2017-12-28T15:49:53.853Z,99399.27
2017-12-28T15:52:20.832Z,99403.59
2017-12-28T15:54:47.863Z,99405.06
2017-12-28T15:57:14.840Z,99413.03
2017-12-28T15:59:41.829Z,99419.38
2017-12-28T16:02:08.832Z,99421.95
2017-12-28T16:04:36.423Z,99427.34
2017-12-28T16:07:03.367Z,99435.44
2017-12-28T16:09:30.334Z,99436.25
2017-12-28T16:11:57.096Z,99447.99
2017-12-28T16:14:24.068Z,99460.83
2017-12-28T16:16:51.010Z,99454.48
2017-12-28T16:19:18.166Z,99461.23
2017-12-28T16:21:45.145Z,99465.55
2017-12-28T16:24:12.292Z,99469.07
2017-12-28T16:26:39.269Z,99478.24
2017-12-28T16:29:06.220Z,99482.71
2017-12-28T16:31:33.173Z,99491.63
2017-12-28T16:34:00.348Z,99488.80
2017-12-28T16:36:27.291Z,99498.52
2017-12-28T16:38:54.476Z,99499.06
2017-12-28T16:41:21.423Z,99501.50
2017-12-28T16:43:48.368Z,99511.80
2017-12-28T16:46:15.341Z,99514.11
2017-12-28T16:48:42.307Z,99511.84
2017-12-28T16:51:10.488Z,99528.05
2017-12-28T16:53:37.465Z,99531.31
2017-12-28T16:56:04.429Z,99537.27
2017-12-28T16:58:31.387Z,99538.61
2017-12-28T17:00:58.338Z,99544.16
2017-12-28T17:05:10.867Z,99550.77
2017-12-28T17:07:37.839Z,99551.58
2017-12-28T17:10:05.102Z,99560.80
2017-12-28T17:12:32.347Z,99563.50
2017-12-28T17:14:59.365Z,99566.70
2017-12-28T17:17:26.550Z,99564.27
2017-12-28T17:19:53.846Z,99574.00
2017-12-28T17:22:21.012Z,99584.30
2017-12-28T17:24:48.366Z,99584.55
2017-12-28T17:53:38.535Z,99626.11
2017-12-28T18:17:07.443Z,99660.86
2017-12-28T18:21:28.772Z,100948.83
2017-12-28T18:23:55.808Z,100952.01
2017-12-28T18:26:22.795Z,100952.78
2017-12-28T18:28:50.095Z,100955.70
2017-12-28T18:31:17.086Z,100962.54
2017-12-28T18:33:44.073Z,100958.20
2017-12-28T18:36:11.163Z,100959.98
2017-12-28T18:38:38.420Z,100961.14
2017-12-28T18:41:05.441Z,100965.92
2017-12-28T18:43:33.119Z,100965.99
2017-12-28T18:45:59.986Z,100969.20
2017-12-28T18:48:26.910Z,100979.80
2017-12-28T18:50:55.056Z,100986.91
2017-12-28T18:53:21.935Z,100996.65
2017-12-28T18:55:48.832Z,100996.55
2017-12-28T18:58:16.055Z,100994.33
2017-12-28T19:00:43.018Z,101001.68
2017-12-28T19:03:10.364Z,101000.35
2017-12-28T19:05:37.383Z,101004.62
2017-12-28T19:08:04.303Z,101003.52
2017-12-28T19:10:31.270Z,101007.45
2017-12-28T19:12:58.174Z,101010.22
2017-12-28T19:15:25.079Z,101015.00
2017-12-28T19:17:51.978Z,101011.62
2017-12-28T19:20:18.852Z,101015.95
2017-12-28T19:22:45.743Z,101014.06
2017-12-28T19:25:12.627Z,101012.73
2017-12-28T19:27:39.554Z,101016.11
2017-12-28T19:30:06.428Z,101014.36
2017-12-28T19:32:33.294Z,101021.16
2017-12-28T19:35:00.226Z,101022.82
2017-12-28T19:37:27.176Z,101023.54
2017-12-28T19:39:54.070Z,101027.29
2017-12-28T19:42:20.954Z,101026.74
2017-12-28T19:44:48.158Z,101024.72
2017-12-28T19:48:36.099Z,101023.50
2017-12-28T19:51:03.098Z,101027.16
2017-12-28T19:55:04.279Z,101034.79
2017-12-28T20:00:27.795Z,101047.63
2017-12-28T20:02:53.791Z,101044.40
2017-12-28T20:05:19.772Z,101049.25
2017-12-28T20:07:45.740Z,101051.46
2017-12-28T20:10:11.646Z,101049.05
2017-12-28T20:12:37.570Z,101052.13
2017-12-28T20:15:03.596Z,101051.47
2017-12-28T20:17:29.514Z,101057.11
2017-12-28T20:19:55.461Z,101059.35
2017-12-28T20:22:21.480Z,101059.30
2017-12-28T20:24:47.615Z,101057.87
2017-12-28T20:27:13.536Z,101061.24
2017-12-28T20:29:39.460Z,101058.65
2017-12-28T20:32:05.454Z,101062.11
2017-12-28T20:34:31.388Z,101062.17
2017-12-28T20:39:28.112Z,101068.42
2017-12-28T20:41:54.031Z,101064.88
2017-12-28T20:44:20.011Z,101063.08
2017-12-28T20:57:11.996Z,101080.20
2017-12-28T20:59:37.950Z,101078.79
2017-12-28T21:02:03.877Z,101086.62
2017-12-28T21:11:22.153Z,99810.75
2017-12-28T21:13:47.715Z,99811.53
2017-12-28T21:16:13.246Z,99817.45
2017-12-28T21:18:38.816Z,99814.84
2017-12-28T21:21:04.344Z,99817.11
2017-12-28T21:23:29.865Z,99822.78
2017-12-28T21:28:34.790Z,101129.74
2017-12-28T21:31:01.626Z,101130.42
2017-12-28T21:33:28.481Z,101134.86
2017-12-28T21:35:55.363Z,101140.57
2017-12-28T21:39:36.454Z,101140.81
2017-12-28T21:42:02.344Z,101146.96
2017-12-28T21:44:28.312Z,101152.86
2017-12-28T21:46:54.427Z,101162.79
2017-12-28T21:49:20.411Z,101166.82
2017-12-28T21:51:46.745Z,101165.01
2017-12-28T21:54:12.772Z,101168.95
2017-12-28T21:56:38.809Z,101175.03
2017-12-28T21:59:04.823Z,101089.44
2017-12-28T22:01:30.768Z,101189.60
2017-12-28T22:03:56.755Z,101179.63
2017-12-28T22:06:22.651Z,101189.72
2017-12-28T22:08:48.567Z,101190.90
2017-12-28T22:11:14.478Z,101199.95
2017-12-28T22:13:40.555Z,101200.82
2017-12-28T22:16:06.479Z,101204.16
2017-12-28T22:18:32.384Z,101206.98
2017-12-28T22:20:58.283Z,101214.92
2017-12-28T22:23:24.194Z,101221.24
2017-12-28T22:25:50.090Z,101227.24
2017-12-28T22:28:16.083Z,101219.43
2017-12-28T22:30:41.977Z,101222.24
2017-12-28T22:33:07.909Z,101229.06
2017-12-28T22:35:33.815Z,101234.26
2017-12-28T22:37:59.699Z,101233.52
2017-12-28T22:40:25.627Z,101236.78
2017-12-28T22:42:51.546Z,101241.49
2017-12-28T22:45:17.422Z,101243.43
2017-12-28T22:47:43.329Z,101245.08
2017-12-28T22:50:09.259Z,101246.53
2017-12-28T22:52:35.143Z,101241.61
2017-12-28T22:55:01.071Z,101245.78
2017-12-28T22:57:26.971Z,101244.16
2017-12-28T22:59:52.858Z,101235.48
2017-12-28T23:02:19.331Z,101234.99
2017-12-28T23:04:45.247Z,101235.32
2017-12-28T23:07:11.163Z,101238.04
2017-12-28T23:09:37.059Z,101239.44
2017-12-28T23:12:03.010Z,101250.93
2017-12-28T23:14:28.903Z,101250.68
2017-12-28T23:16:54.816Z,101246.09
2017-12-28T23:19:20.734Z,101247.99
2017-12-28T23:21:46.624Z,101248.60
2017-12-28T23:24:12.543Z,101258.47
2017-12-28T23:26:38.663Z,101266.66
2017-12-28T23:29:04.563Z,101274.87
2017-12-28T23:31:30.459Z,101275.71
2017-12-28T23:33:56.374Z,101276.85
2017-12-28T23:36:22.269Z,101268.42
2017-12-28T23:38:48.399Z,101275.56
2017-12-28T23:41:14.292Z,101274.20
2017-12-28T23:43:41.371Z,101266.91
2017-12-28T23:46:07.306Z,101273.73
2017-12-28T23:48:33.232Z,101278.15
2017-12-28T23:50:59.126Z,101278.15
2017-12-28T23:53:25.602Z,101284.71
2017-12-28T23:55:51.512Z,101285.04
2017-12-28T23:58:17.431Z,101288.30
